• Join FlightAware (Why Join?)
  • Login
  • US Flag 
11:47PM EDT


 

Airport Tracker/Info


-or-


 

Live Flight TrackerFlight Track Log ✈ SWA4732 ✈ 13-Aug-2014 ✈ KDEN - KOAK

Flight Track Log - Related Links

Times and Time Zones

All times are in EDT time to prevent confusion due to time zone crossing. See the SWA4732 flight status page for this flight to view local times or setup timezone preferences in your user account.

Time Position Orientation Groundspeed Altitude Reporting Facility
EDT Latitude Longitude Course Direction KTS MPH feet Rate Location/Type
05:28PM 39.8167 -104.7333 270° West 245 282 8,100  Level Denver TRACON
05:29PM 39.8167 -104.8333 270° West 270 311 10,100 1,740 Climbing Denver TRACON
05:30PM 39.8217 -104.8850 277° West 305 351 10,900 2,340 Climbing Denver Center
05:31PM 39.8392 -105.0247 279° West 360 414 13,900 3,000 Climbing Denver Center
05:32PM 39.8686 -105.1533 287° West 371 427 17,200 3,000 Climbing Denver Center
05:33PM 39.8500 -105.3901 270° West  Level FlightAware Approximate
05:33PM 39.8992 -105.3008 285° West 392 451 20,100  Level Denver Center
05:34PM 39.8953 -105.4217 268° West 374 430 22,400 2,340 Climbing Denver Center
05:35PM 39.8750 -105.5997 262° West 409 471 25,000 2,100 Climbing Denver Center
05:36PM 39.8564 -105.7486 261° West 416 479 26,800 1,560 Climbing Denver Center
05:37PM 39.8444 -105.9044 264° West 432 497 28,300 1,500 Climbing Denver Center
05:38PM 39.8300 -106.0647 263° West 443 510 30,000 1,680 Climbing Denver Center
05:39PM 39.8167 -106.2275 264° West 449 517 31,800 1,980 Climbing Denver Center
05:40PM 39.8014 -106.3853 263° West 446 513 34,200 2,160 Climbing Denver Center
05:41PM 39.7886 -106.5422 264° West 429 494 36,300 1,920 Climbing Denver Center
05:42PM 39.7781 -106.7236 266° West 423 487 38,200 1,680 Climbing Denver Center
05:43PM 39.7678 -106.8719 265° West 420 483 39,800 840 Climbing Denver Center
05:44PM 39.7578 -107.0203 265° West 419 482 40,000 60 Climbing Denver Center
05:45PM 39.7469 -107.1689 265° West 418 481 40,000  Level Denver Center
05:46PM 39.7350 -107.3303 265° West 415 478 40,000  Level Denver Center
05:47PM 39.7236 -107.4792 264° West 417 480 40,000  Level Denver Center
05:48PM 39.7125 -107.6306 265° West 417 480 40,000  Level Denver Center
05:49PM 39.6983 -107.8117 264° West 421 484 40,000  Level Denver Center
05:50PM 39.6858 -107.9633 264° West 424 488 40,000  Level Denver Center
05:51PM 39.6742 -108.1153 264° West 425 489 40,000  Level Denver Center
05:52PM 39.6625 -108.2697 264° West 433 498 40,000  Level Denver Center
05:53PM 39.6508 -108.4203 264° West 421 484 40,000  Level Denver Center
05:55PM 39.6386 -108.5722 264° West 423 487 40,000  Level Denver Center
05:56PM 39.6231 -108.7575 264° West 426 490 40,000  Level Denver Center
05:56PM 39.6111 -108.8894 263° West 426 490 40,000  Level Salt Lake Center
05:58PM 39.5983 -109.0353 264° West 415 478 40,000  Level Salt Lake Center
05:59PM 39.5858 -109.1825 264° West 412 474 40,000  Level Salt Lake Center
06:00PM 39.5725 -109.3303 263° West 413 475 40,000  Level Salt Lake Center
06:01PM 39.5597 -109.4792 264° West 413 475 40,000  Level Salt Lake Center
06:02PM 39.5428 -109.6558 263° West 413 475 40,000  Level Salt Lake Center
06:03PM 39.5294 -109.8028 263° West 413 475 40,000  Level Salt Lake Center
06:04PM 39.5161 -109.9531 263° West 418 481 40,000  Level Salt Lake Center
06:05PM 39.4978 -110.0994 261° West 417 480 40,000  Level Salt Lake Center
06:06PM 39.4775 -110.2481 260° West 418 481 40,000  Level Salt Lake Center
06:07PM 39.4581 -110.3964 260° West 418 481 40,000  Level Salt Lake Center
06:08PM 39.4336 -110.5750 260° West 419 482 40,000  Level Salt Lake Center
06:09PM 39.4142 -110.7242 260° West 420 483 40,000  Level Salt Lake Center
06:10PM 39.3939 -110.8744 260° West 422 486 40,000  Level Salt Lake Center
06:11PM 39.3731 -111.0247 260° West 423 487 40,000  Level Salt Lake Center
06:12PM 39.3519 -111.1728 260° West 423 487 40,000  Level Salt Lake Center
06:13PM 39.3278 -111.3411 260° West 419 482 40,000  Level Salt Lake Center
06:14PM 39.3064 -111.4883 259° West 419 482 40,000  Level Salt Lake Center
06:15PM 39.2850 -111.6369 260° West 419 482 40,000  Level Salt Lake Center
06:16PM 39.2622 -111.7853 259° West 421 484 40,000  Level Salt Lake Center
06:17PM 39.2406 -111.9331 259° West 420 483 40,000  Level Salt Lake Center
06:18PM 39.2172 -112.1017 260° West 417 480 40,000  Level Salt Lake Center
06:19PM 39.1950 -112.2481 259° West 417 480 40,000  Level Salt Lake Center
06:20PM 39.1733 -112.3956 259° West 418 481 40,000  Level Salt Lake Center
06:21PM 39.1503 -112.5408 258° West 418 481 40,000  Level Salt Lake Center
06:22PM 39.1233 -112.7178 259° West 418 481 40,000  Level Salt Lake Center
06:23PM 39.1017 -112.8631 259° West 418 481 40,000  Level Salt Lake Center
06:24PM 39.0781 -113.0094 258° West 418 481 40,000  Level Salt Lake Center
06:25PM 39.0556 -113.1553 259° West 418 481 40,000  Level Salt Lake Center
06:26PM 39.0333 -113.3008 259° West 418 481 40,000  Level Salt Lake Center
06:28PM 39.0050 -113.4742 258° West 417 480 40,000  Level Salt Lake Center
06:29PM 38.9811 -113.6217 258° West 418 481 40,000  Level Salt Lake Center
06:30PM 38.9569 -113.7681 258° West 420 483 40,000  Level Salt Lake Center
06:31PM 38.9342 -113.9153 259° West 420 483 40,000  Level Salt Lake Center
06:32PM 38.9089 -114.0628 258° West 421 484 40,000  Level Salt Lake Center
06:33PM 38.8853 -114.2111 258° West 425 489 40,000  Level Salt Lake Center
06:34PM 38.8542 -114.3906 258° West 430 495 40,000  Level Salt Lake Center
06:35PM 38.8294 -114.5397 258° West 430 495 40,000  Level Salt Lake Center
06:36PM 38.8025 -114.6892 257° West 430 495 40,000  Level Salt Lake Center
06:37PM 38.7778 -114.8369 258° West 429 494 40,000  Level Salt Lake Center
06:38PM 38.7517 -114.9869 257° West 430 495 40,000  Level Salt Lake Center
06:39PM 38.7192 -115.1669 257° West 430 495 40,000  Level Salt Lake Center
06:41PM 38.6681 -115.4589 257° West 431 496 40,000  Level Oakland Center
06:42PM 38.6408 -115.6086 257° West 431 496 40,000  Level Oakland Center
06:43PM 38.6144 -115.7556 257° West 428 493 40,000  Level Salt Lake Center
06:44PM 38.5831 -115.9331 257° West 428 493 40,000  Level Salt Lake Center
06:45PM 38.5556 -116.0808 257° West 428 493 40,000  Level Salt Lake Center
06:46PM 38.5292 -116.2267 257° West 427 491 40,000  Level Salt Lake Center
06:47PM 38.5011 -116.3733 256° West 427 491 40,000  Level Oakland Center
06:48PM 38.4731 -116.5194 256° West 425 489 40,000  Level Oakland Center
06:49PM 38.4467 -116.6656 257° West 426 490 40,000  Level Salt Lake Center
06:50PM 38.4128 -116.8422 256° West 426 490 40,000  Level Salt Lake Center
06:51PM 38.3906 -116.9600 256° West 428 493 40,000  Level Oakland Center
06:52PM 38.3622 -117.1086 256° West 431 496 40,000  Level Oakland Center
06:53PM 38.3306 -117.2708 256° West 436 502 40,000  Level Oakland Center
06:54PM 38.3092 -117.4375 261° West 437 503 40,000  Level Oakland Center
06:55PM 38.2906 -117.5889 261° West 438 504 40,000  Level Oakland Center
06:56PM 38.2717 -117.7403 261° West 437 503 40,000  Level Oakland Center
06:57PM 38.2528 -117.8931 261° West 437 503 40,000  Level Oakland Center
06:58PM 38.2331 -118.0458 261° West 437 503 40,000  Level Oakland Center
06:59PM 38.2106 -118.2178 261° West 437 503 40,000  Level Oakland Center
07:00PM 38.1903 -118.3689 260° West 437 503 40,000  Level Oakland Center
07:01PM 38.1714 -118.5194 261° West 435 501 40,000 -240 Level Oakland Center
07:02PM 38.1511 -118.6656 260° West 426 490 39,600 -780 Descending Oakland Center
07:04PM 38.1311 -118.8156 260° West 413 475 38,500 -780 Descending Oakland Center
07:05PM 38.1108 -118.9558 260° West 406 467 38,000 -600 Descending Oakland Center
07:06PM 38.0931 -119.0983 261° West 406 467 37,300 -840 Descending Oakland Center
07:07PM 38.0700 -119.2550 259° West 414 476 36,300 -960 Descending Oakland Center
07:08PM 38.0508 -119.3969 260° West 412 474 35,400 -960 Descending Oakland Center
07:09PM 38.0306 -119.5422 260° West 415 478 34,400 -960 Descending Oakland Center
07:10PM 38.0092 -119.6906 260° West 422 486 33,500 -960 Descending Oakland Center
07:11PM 37.9864 -119.8367 259° West 423 487 32,500 -1,020 Descending Oakland Center
07:12PM 37.9675 -119.9783 260° West 411 473 31,400 -1,140 Descending Oakland Center
07:13PM 37.9428 -120.1458 259° West 405 466 30,200 -720 Descending Oakland Center
07:14PM 37.9211 -120.2844 259° West 402 463 30,000 -480 Descending Oakland Center
07:15PM 37.9008 -120.4211 259° West 398 458 29,300 -1,860 Descending Oakland Center
07:16PM 37.8808 -120.5586 260° West 398 458 26,300 -2,640 Descending Oakland Center
07:17PM 37.8608 -120.6950 260° West 397 457 23,900 -2,520 Descending Oakland Center
07:18PM 37.8553 -120.8247 267° West 377 434 21,200 -2,820 Descending Oakland Center
07:19PM 37.8500 -120.9167 266° West 363 418 19,200 -2,700 Descending Northern Cal TRACON
07:20PM 37.8500 -121.0333 270° West 349 402 16,800 -2,460 Descending Northern Cal TRACON
07:21PM 37.8333 -121.1667 261° West 358 412 14,300 -2,400 Descending Northern Cal TRACON
07:22PM 37.8000 -121.2833 250° West 369 425 12,000 -1,740 Descending Northern Cal TRACON
07:23PM 37.7667 -121.3667 243° Southwest 308 354 10,900 -1,080 Descending Northern Cal TRACON
07:24PM 37.7167 -121.4833 242° Southwest 300 345 9,900 -840 Descending Northern Cal TRACON
07:25PM 37.7000 -121.5667 256° West 258 297 9,200 -960 Descending Northern Cal TRACON
07:26PM 37.6667 -121.6500 243° Southwest 264 304 8,000 -1,320 Descending Northern Cal TRACON
07:27PM 37.6500 -121.7333 256° West 273 314 6,800 -1,380 Descending Northern Cal TRACON
07:28PM 37.6500 -121.8333 270° West 264 304 5,400 -1,200 Descending Northern Cal TRACON
07:29PM 37.6333 -121.9167 256° West 247 284 4,400 -1,080 Descending Northern Cal TRACON
07:29PM 37.6372 -121.9597 277° West 251 289 3,700 -1,200 Descending Oakland Center
07:30PM 37.6283 -122.0539 263° West 235 270 2,400 -900 Descending Oakland Center
07:31PM 37.6375 -122.1169 280° West 204 235 1,900 -600 Descending Oakland Center
07:32PM 37.6617 -122.1572 307° West 166 191 1,200 -660 Descending Oakland Center
07:33PM 37.6839 -122.1894 311° West 141 162 600 -600 Descending Oakland Center
07:36PM 37.7167 -122.2167 270° West  Level FlightAware Approximate
07:43PM 37.7228 -122.2215 270° West  Level Estimated